Terminal Aerodrome Forecast
Issued by NWS Portland, OR

Current Version | Previous Version | Text Only | Print | Product List | Glossary On
Versions: 1 2 3 4 5 6 7 8 9 10 11 12 13 14 15 16 17 18 19 20 21 22 23 24 25 26 27 28 29 30 31 32 33 34 35 36 37 38 39 40 41 42 43 44 45 46 47 48 49 50
424
FTUS46 KPQR 231742
TAFEUG
TAF
KEUG 231742Z 2318/2418 20004KT P6SM FEW002 SCT040
     FM232000 29005KT P6SM VCSH SCT025 BKN050
     FM240300 20003KT P6SM SCT040
     FM240600 00000KT 1/2SM FG VV002=

USA.gov is the U.S. government's official web portal to all federal, state and local government web resources and services.